createdAt,value
2022-09-06T00:00:29.290Z,100476.28
2022-09-06T00:02:58.298Z,100480.66
2022-09-06T00:05:26.796Z,100487.72
2022-09-06T00:07:55.045Z,100488.69
2022-09-06T00:10:22.941Z,100496.63
2022-09-06T00:12:50.842Z,100499.44
2022-09-06T00:15:19.045Z,100508.53
2022-09-06T00:17:46.967Z,100514.00
2022-09-06T00:20:15.424Z,100499.47
2022-09-06T00:22:43.606Z,100500.28
2022-09-06T00:25:11.540Z,100498.28
2022-09-06T00:27:39.442Z,100487.16
2022-09-06T00:30:08.374Z,100498.00
2022-09-06T00:32:36.348Z,100511.75
2022-09-06T00:35:04.921Z,100519.66
2022-09-06T00:37:32.916Z,100522.00
2022-09-06T00:40:00.897Z,100511.25
2022-09-06T00:42:28.913Z,100511.03
2022-09-06T00:44:57.120Z,100498.44
2022-09-06T00:47:27.269Z,100496.69
2022-09-06T00:49:58.871Z,100493.94
2022-09-06T00:52:28.981Z,100486.63
2022-09-06T00:54:57.273Z,100486.63
2022-09-06T00:57:27.289Z,100514.66
2022-09-06T00:59:56.483Z,100509.47
2022-09-06T01:02:24.511Z,100516.34
2022-09-06T01:04:52.922Z,100495.78
2022-09-06T01:07:57.292Z,100520.69
2022-09-06T01:10:41.951Z,100577.50
2022-09-06T01:13:41.968Z,100552.94
2022-09-06T01:17:06.443Z,100512.66
2022-09-06T01:20:05.152Z,100509.47
2022-09-06T01:23:06.312Z,100518.00
2022-09-06T01:26:11.852Z,100543.63
2022-09-06T01:28:46.306Z,100555.53
2022-09-06T01:31:35.506Z,100593.47
2022-09-06T01:34:06.316Z,100597.59
2022-09-06T01:37:09.483Z,100591.75
2022-09-06T01:39:40.432Z,100603.63
2022-09-06T01:42:18.692Z,100585.75
2022-09-06T01:45:00.814Z,100579.78
2022-09-06T01:47:43.424Z,100573.72
2022-09-06T01:50:45.493Z,100577.72
2022-09-06T01:53:45.257Z,100595.91
2022-09-06T01:57:00.336Z,100581.00
2022-09-06T01:59:59.037Z,100585.84
2022-09-06T02:02:54.478Z,100592.25
2022-09-06T02:05:46.143Z,100596.19
2022-09-06T02:08:28.505Z,100590.28
2022-09-06T02:11:06.465Z,100592.09
2022-09-06T02:13:41.157Z,100600.97
2022-09-06T02:16:14.257Z,100604.69
2022-09-06T02:18:56.185Z,100604.53
2022-09-06T02:21:33.773Z,100618.75
2022-09-06T02:24:06.300Z,100634.75
2022-09-06T02:26:41.173Z,100636.63
2022-09-06T02:29:09.719Z,100659.28
2022-09-06T02:31:52.308Z,100685.66
2022-09-06T02:34:21.208Z,100689.44
2022-09-06T02:36:49.491Z,100694.81
2022-09-06T02:39:17.399Z,100683.25
2022-09-06T02:41:48.232Z,100662.69
2022-09-06T02:44:16.551Z,100646.59
2022-09-06T02:46:44.497Z,100631.50
2022-09-06T02:49:12.329Z,100631.66
2022-09-06T02:51:41.019Z,100651.34
2022-09-06T02:54:09.551Z,100682.78
2022-09-06T02:56:37.572Z,100691.56
2022-09-06T02:59:05.685Z,100691.47
2022-09-06T03:01:34.622Z,100687.19
2022-09-06T03:04:02.886Z,100693.13
2022-09-06T03:06:31.509Z,100692.44
2022-09-06T03:09:00.272Z,100696.03
2022-09-06T03:11:28.902Z,100702.28
2022-09-06T03:13:57.257Z,100698.03
2022-09-06T03:16:25.186Z,100683.69
2022-09-06T03:18:53.597Z,100704.34
2022-09-06T03:21:21.452Z,100703.75
2022-09-06T03:23:49.774Z,100704.69
2022-09-06T03:26:18.093Z,100719.09
2022-09-06T03:28:45.981Z,100714.75
2022-09-06T03:31:13.992Z,100710.44
2022-09-06T03:33:41.984Z,100710.56
2022-09-06T03:36:09.990Z,100707.13
2022-09-06T03:38:38.057Z,100700.97
2022-09-06T03:41:06.331Z,100705.84
2022-09-06T03:43:34.798Z,100703.34
2022-09-06T03:46:02.782Z,100724.53
2022-09-06T03:48:31.224Z,100728.16
2022-09-06T03:51:00.081Z,100744.22
2022-09-06T03:53:29.993Z,100741.78
2022-09-06T03:55:58.779Z,100747.06
2022-09-06T03:58:31.438Z,100745.31
2022-09-06T04:01:09.304Z,100755.19
2022-09-06T04:03:38.458Z,100753.47
2022-09-06T04:06:07.896Z,100750.97
2022-09-06T04:08:38.321Z,100753.66
2022-09-06T04:11:07.074Z,100763.50
2022-09-06T04:13:35.583Z,100760.00
2022-09-06T04:16:05.161Z,100774.97
2022-09-06T04:18:33.280Z,100781.16
2022-09-06T04:21:01.607Z,100784.72
2022-09-06T04:23:30.132Z,100794.53
2022-09-06T04:25:59.743Z,100788.25
2022-09-06T04:28:28.761Z,100803.50
2022-09-06T04:31:04.913Z,100784.81
2022-09-06T04:33:36.033Z,100786.69
2022-09-06T04:36:07.647Z,100785.06
2022-09-06T04:38:39.550Z,100795.00
2022-09-06T04:41:09.419Z,100799.44
2022-09-06T04:43:37.802Z,100785.22
2022-09-06T04:46:28.696Z,100802.13
2022-09-06T04:48:58.204Z,100797.75
2022-09-06T04:51:26.970Z,100804.75
2022-09-06T04:53:55.370Z,100807.63
2022-09-06T04:56:25.522Z,100811.13
2022-09-06T04:58:55.392Z,100811.06
2022-09-06T05:01:26.344Z,100816.38
2022-09-06T05:03:56.953Z,100819.97
2022-09-06T05:06:25.670Z,100799.56
2022-09-06T05:08:54.185Z,100806.66
2022-09-06T05:11:22.515Z,100812.06
2022-09-06T05:13:50.478Z,100796.22
2022-09-06T05:16:19.034Z,100802.56
2022-09-06T05:18:47.260Z,100813.34
2022-09-06T05:21:16.154Z,100824.91
2022-09-06T05:23:44.508Z,100832.09
2022-09-06T05:26:12.793Z,100844.44
2022-09-06T05:28:41.049Z,100849.72
2022-09-06T05:31:12.069Z,100855.97
2022-09-06T05:33:40.386Z,100855.88
2022-09-06T05:36:08.903Z,100870.03
2022-09-06T05:38:37.241Z,100864.63
2022-09-06T05:41:05.544Z,100872.63
2022-09-06T05:43:33.375Z,100877.91
2022-09-06T05:46:01.831Z,100878.75
2022-09-06T05:48:33.297Z,100889.41
2022-09-06T05:51:15.146Z,100895.66
2022-09-06T05:53:45.113Z,100893.00
2022-09-06T05:56:15.042Z,100905.44
2022-09-06T05:58:43.656Z,100901.81
2022-09-06T06:01:29.562Z,100900.88
2022-09-06T06:04:03.885Z,100901.75
2022-09-06T06:06:34.463Z,100913.34
2022-09-06T06:09:02.990Z,100914.22
2022-09-06T06:11:32.434Z,100914.13
2022-09-06T06:14:00.708Z,100919.41
2022-09-06T06:16:29.173Z,100922.00
2022-09-06T06:18:57.749Z,100901.44
2022-09-06T06:21:28.589Z,100906.66
2022-09-06T06:24:06.906Z,100906.53
2022-09-06T06:26:36.689Z,100904.66
2022-09-06T06:29:08.296Z,100893.84
2022-09-06T06:31:38.331Z,100901.75
2022-09-06T06:34:07.469Z,100900.69
2022-09-06T06:36:37.464Z,100895.13
2022-09-06T06:39:09.099Z,100907.41
2022-09-06T06:41:37.857Z,100908.94
2022-09-06T06:44:23.329Z,100912.22
2022-09-06T06:46:52.232Z,100901.22
2022-09-06T06:49:20.105Z,100892.09
2022-09-06T06:51:47.981Z,100883.81
2022-09-06T06:54:15.914Z,100874.75
2022-09-06T06:56:45.752Z,100868.19
2022-09-06T06:59:14.911Z,100870.75
2022-09-06T07:01:43.145Z,100874.16
2022-09-06T07:04:12.362Z,100863.22
2022-09-06T07:12:31.841Z,100840.16
2022-09-06T07:14:59.832Z,100846.97
2022-09-06T07:17:28.746Z,100830.78
2022-09-06T07:22:40.897Z,100813.00
2022-09-06T07:25:10.422Z,100819.09
2022-09-06T07:30:14.529Z,100795.03
2022-09-06T07:32:42.501Z,100793.06
2022-09-06T07:35:12.438Z,100786.41
2022-09-06T07:37:40.817Z,100779.41
2022-09-06T07:40:09.906Z,100797.09
2022-09-06T07:42:38.058Z,100785.06
2022-09-06T07:45:06.745Z,100787.56
2022-09-06T07:53:15.305Z,100785.44
2022-09-06T07:55:45.554Z,100766.78
2022-09-06T07:58:14.457Z,100762.47
2022-09-06T08:00:42.519Z,100749.34
2022-09-06T08:03:11.561Z,100753.69
2022-09-06T08:11:16.144Z,100763.38
2022-09-06T08:13:44.614Z,100749.50
2022-09-06T08:16:13.995Z,100740.75
2022-09-06T08:18:42.193Z,100720.72
2022-09-06T08:21:15.340Z,100723.69
2022-09-06T08:23:56.089Z,100725.38
2022-09-06T08:26:25.897Z,100719.06
2022-09-06T08:29:05.934Z,100694.88
2022-09-06T08:31:36.245Z,100713.81
2022-09-06T08:34:04.408Z,100680.16
2022-09-06T08:36:33.551Z,100680.75
2022-09-06T08:39:05.417Z,100704.03
2022-09-06T08:41:52.740Z,100673.28
2022-09-06T08:45:04.151Z,100654.16
2022-09-06T08:47:32.490Z,100665.91
2022-09-06T08:50:07.260Z,100687.84
2022-09-06T08:52:49.703Z,100690.53
2022-09-06T08:56:03.160Z,100672.75
2022-09-06T08:58:47.782Z,100671.13
2022-09-06T09:01:25.413Z,100637.28
2022-09-06T09:03:57.625Z,100674.44
2022-09-06T09:06:26.990Z,100666.34
2022-09-06T09:09:06.501Z,100667.88
2022-09-06T09:11:36.372Z,100628.16
2022-09-06T09:14:28.314Z,100679.44
2022-09-06T09:17:05.042Z,100636.13
2022-09-06T09:19:36.786Z,100601.50
2022-09-06T09:22:04.742Z,100623.41
2022-09-06T09:24:32.748Z,100579.38
2022-09-06T09:27:13.915Z,100665.16
2022-09-06T09:32:45.602Z,100599.00
2022-09-06T09:35:32.111Z,100604.19
2022-09-06T09:38:38.130Z,100630.31
2022-09-06T09:41:08.312Z,100634.03
2022-09-06T09:43:41.525Z,100561.69
2022-09-06T09:46:22.187Z,100578.41
2022-09-06T09:49:07.719Z,100612.69
2022-09-06T09:51:45.235Z,100544.50
2022-09-06T09:54:15.654Z,100558.72
2022-09-06T09:56:50.452Z,100557.91
2022-09-06T09:59:44.001Z,100626.41
2022-09-06T10:02:35.865Z,100551.09
2022-09-06T10:05:13.113Z,100562.03
2022-09-06T10:07:55.822Z,100507.03
2022-09-06T10:10:31.003Z,100487.59
2022-09-06T10:13:13.854Z,100511.34
2022-09-06T10:15:42.467Z,100495.25
2022-09-06T10:18:41.613Z,100488.91
2022-09-06T10:21:22.477Z,100470.56
2022-09-06T10:26:56.138Z,100415.59
2022-09-06T10:29:54.253Z,100440.16
2022-09-06T10:32:47.512Z,100414.78
2022-09-06T10:35:22.784Z,100415.16
2022-09-06T10:38:13.407Z,100427.75
2022-09-06T10:41:04.526Z,100431.00
2022-09-06T10:43:55.777Z,100365.56
2022-09-06T10:46:26.860Z,100344.28
2022-09-06T10:48:55.093Z,100360.78
2022-09-06T10:51:45.762Z,100328.97
2022-09-06T10:54:25.185Z,100317.19
2022-09-06T10:57:02.851Z,100277.97
2022-09-06T11:02:20.777Z,100318.31
2022-09-06T11:10:48.054Z,100236.09
2022-09-06T11:13:17.790Z,100179.13
2022-09-06T11:15:55.204Z,100225.06
2022-09-06T11:18:55.866Z,100200.28
2022-09-06T11:21:35.701Z,100219.13
2022-09-06T11:24:22.841Z,100265.22
2022-09-06T11:27:12.034Z,100184.50
2022-09-06T11:29:45.728Z,100182.06
2022-09-06T11:32:29.909Z,100162.09
2022-09-06T11:35:01.428Z,100140.38
2022-09-06T11:37:41.449Z,100134.22
2022-09-06T11:40:27.312Z,100100.78
2022-09-06T11:42:58.768Z,100072.72
2022-09-06T11:45:50.254Z,100030.66
2022-09-06T11:48:24.094Z,100059.03
2022-09-06T11:50:54.686Z,100015.94
2022-09-06T11:53:25.408Z,99977.13
2022-09-06T11:56:02.185Z,100007.63
2022-09-06T11:58:42.022Z,99972.00
2022-09-06T12:01:13.079Z,99883.09
2022-09-06T12:06:36.224Z,99939.63
2022-09-06T12:09:30.515Z,99928.41
2022-09-06T12:12:01.322Z,99903.22
2022-09-06T12:14:33.350Z,99907.25
2022-09-06T12:17:01.463Z,99868.97
2022-09-06T12:20:06.718Z,99794.81
2022-09-06T12:22:37.418Z,99695.66
2022-09-06T12:25:36.264Z,99707.50
2022-09-06T12:28:07.043Z,99729.47
2022-09-06T12:30:42.184Z,99738.06
2022-09-06T12:33:25.745Z,99694.91
2022-09-06T12:35:57.065Z,99636.06
2022-09-06T12:38:26.061Z,99664.56
2022-09-06T12:40:59.126Z,99634.25
2022-09-06T12:43:27.510Z,99678.47
2022-09-06T12:45:55.618Z,99656.53
2022-09-06T12:48:30.384Z,99623.31
2022-09-06T12:51:08.017Z,99616.72
2022-09-06T12:53:36.010Z,99578.06
2022-09-06T12:56:08.181Z,99581.78
2022-09-06T12:58:36.790Z,99603.81
2022-09-06T13:01:29.973Z,99761.69
2022-09-06T13:04:43.919Z,99942.22
2022-09-06T13:07:16.175Z,99968.41
2022-09-06T13:09:49.511Z,99975.31
2022-09-06T13:12:30.999Z,100000.19
2022-09-06T13:15:16.400Z,99958.28
2022-09-06T13:17:44.847Z,99940.72
2022-09-06T13:20:29.332Z,99905.16
2022-09-06T13:23:22.995Z,99895.56
2022-09-06T13:25:54.514Z,99964.50
2022-09-06T13:28:34.569Z,99993.34
2022-09-06T13:31:17.487Z,100012.47
2022-09-06T13:33:46.454Z,100053.28
2022-09-06T13:36:14.812Z,100035.34
2022-09-06T13:38:45.475Z,100041.75
2022-09-06T13:41:25.500Z,100077.47
2022-09-06T13:44:04.525Z,100095.09
2022-09-06T13:46:38.556Z,100088.91
2022-09-06T13:49:06.973Z,100065.69
2022-09-06T13:51:35.634Z,100074.44
2022-09-06T13:54:12.364Z,100072.72
2022-09-06T13:56:43.999Z,100058.97
2022-09-06T13:59:12.747Z,100040.88
2022-09-06T14:01:44.214Z,100035.13
2022-09-06T14:04:21.441Z,100031.69
2022-09-06T14:06:49.910Z,100033.59
2022-09-06T14:09:18.006Z,100052.97
2022-09-06T14:12:34.649Z,100053.72
2022-09-06T14:15:02.851Z,100089.34
2022-09-06T14:17:33.268Z,100049.56
2022-09-06T14:20:04.599Z,99922.19
2022-09-06T14:22:33.092Z,99916.91
2022-09-06T14:25:01.500Z,99873.75
2022-09-06T14:27:32.978Z,99865.38
2022-09-06T14:30:01.263Z,99889.28
2022-09-06T14:32:29.518Z,99915.72
2022-09-06T14:34:57.752Z,99967.34
2022-09-06T14:37:26.147Z,99991.25
2022-09-06T14:40:28.072Z,99911.88
2022-09-06T14:42:58.486Z,99859.13
2022-09-06T14:45:26.832Z,99855.53
2022-09-06T14:47:55.304Z,99951.06
2022-09-06T14:50:24.043Z,99982.31
2022-09-06T14:52:52.336Z,99914.84
2022-09-06T14:55:21.406Z,99879.47
2022-09-06T14:57:50.363Z,99865.09
2022-09-06T15:03:29.350Z,99944.31
2022-09-06T15:05:57.864Z,99952.00
2022-09-06T15:08:26.319Z,99981.13
2022-09-06T15:10:56.031Z,99983.78
2022-09-06T15:13:25.529Z,99924.94
2022-09-06T15:15:57.062Z,99980.84
2022-09-06T15:18:25.148Z,100017.44
2022-09-06T15:20:53.474Z,99988.19
2022-09-06T15:23:25.200Z,99928.91
2022-09-06T15:25:54.256Z,99933.34
2022-09-06T15:28:22.238Z,99904.56
2022-09-06T15:30:50.362Z,99877.19
2022-09-06T15:33:19.349Z,99846.88
2022-09-06T15:35:57.263Z,99842.03
2022-09-06T15:38:25.344Z,99849.50
2022-09-06T15:40:53.262Z,99866.88
2022-09-06T15:43:21.268Z,99931.44
2022-09-06T15:45:50.635Z,99907.75
2022-09-06T15:48:18.560Z,99940.31
2022-09-06T15:50:51.634Z,99974.59
2022-09-06T15:53:20.674Z,99994.19
2022-09-06T15:55:57.760Z,99986.19
2022-09-06T15:58:27.177Z,99992.09
2022-09-06T16:01:07.926Z,100014.97
2022-09-06T16:03:42.159Z,100033.94
2022-09-06T16:06:31.424Z,100021.13
2022-09-06T16:09:10.577Z,100027.44
2022-09-06T16:11:38.582Z,100036.06
2022-09-06T16:14:10.966Z,100037.28
2022-09-06T16:16:40.584Z,100043.06
2022-09-06T16:19:10.038Z,100037.38
2022-09-06T16:21:41.718Z,100038.66
2022-09-06T16:24:13.289Z,100053.97
2022-09-06T16:26:45.933Z,100056.44
2022-09-06T16:29:18.252Z,100080.81
2022-09-06T16:31:47.137Z,100092.81
2022-09-06T16:34:15.790Z,100114.75
2022-09-06T16:36:43.812Z,100099.59
2022-09-06T16:39:11.913Z,100125.47
2022-09-06T16:41:44.008Z,100089.31
2022-09-06T16:44:18.357Z,100078.53
2022-09-06T16:46:49.731Z,100083.81
2022-09-06T16:49:20.638Z,100090.72
2022-09-06T16:51:50.698Z,100088.44
2022-09-06T16:54:19.563Z,100099.03
2022-09-06T16:56:47.885Z,100079.50
2022-09-06T16:59:17.389Z,100086.13
2022-09-06T17:01:46.345Z,100086.56
2022-09-06T17:04:14.817Z,100078.75
2022-09-06T17:06:44.660Z,100058.97
2022-09-06T17:09:16.117Z,100052.56
2022-09-06T17:11:44.274Z,100048.03
2022-09-06T17:14:13.751Z,100022.06
2022-09-06T17:17:20.148Z,100018.66
2022-09-06T17:19:48.132Z,100090.56
2022-09-06T17:22:16.241Z,100100.81
2022-09-06T17:24:44.192Z,100114.03
2022-09-06T17:27:12.434Z,100124.09
2022-09-06T17:29:40.359Z,100123.69
2022-09-06T17:32:11.227Z,100119.66
2022-09-06T17:34:40.937Z,100126.06
2022-09-06T17:37:09.119Z,100124.31
2022-09-06T17:39:37.697Z,100118.19
2022-09-06T17:42:06.487Z,100146.41
2022-09-06T17:44:34.972Z,100158.06
2022-09-06T17:47:18.889Z,100168.19
2022-09-06T17:49:47.412Z,100166.75
2022-09-06T17:52:15.489Z,100193.28
2022-09-06T17:54:46.943Z,100194.34
2022-09-06T17:57:14.959Z,100197.22
2022-09-06T17:59:43.217Z,100178.78
2022-09-06T18:02:11.268Z,100183.25
2022-09-06T18:04:39.443Z,100191.63
2022-09-06T18:07:07.485Z,100200.00
2022-09-06T18:09:37.129Z,100212.75
2022-09-06T18:12:06.819Z,100219.94
2022-09-06T18:14:35.162Z,100225.72
2022-09-06T18:17:26.853Z,100224.91
2022-09-06T18:19:54.987Z,100235.03
2022-09-06T18:22:23.012Z,100239.97
2022-09-06T18:24:55.002Z,100268.19
2022-09-06T18:27:25.931Z,100279.47
2022-09-06T18:29:53.837Z,100265.53
2022-09-06T18:32:21.975Z,100277.16
2022-09-06T18:34:50.174Z,100290.19
2022-09-06T18:37:18.923Z,100322.22
2022-09-06T18:39:47.253Z,100325.97
2022-09-06T18:42:15.428Z,100324.38
2022-09-06T18:44:44.462Z,100360.28
2022-09-06T18:47:14.076Z,100370.31
2022-09-06T18:49:44.556Z,100360.53
2022-09-06T18:52:13.049Z,100353.47
2022-09-06T18:54:42.113Z,100348.75
2022-09-06T18:57:10.571Z,100342.41
2022-09-06T18:59:38.639Z,100350.00
2022-09-06T19:02:06.934Z,100361.97
2022-09-06T19:04:35.106Z,100375.63
2022-09-06T19:07:03.989Z,100376.94
2022-09-06T19:09:32.101Z,100369.00
2022-09-06T19:12:00.496Z,100370.78
2022-09-06T19:14:28.610Z,100367.38
2022-09-06T19:16:56.605Z,100359.97
2022-09-06T19:19:25.834Z,100355.38
2022-09-06T19:21:54.472Z,100353.66
2022-09-06T19:24:22.893Z,100380.66
2022-09-06T19:26:51.595Z,100380.25
2022-09-06T19:29:19.921Z,100379.19
2022-09-06T19:31:48.596Z,100394.66
2022-09-06T19:34:16.700Z,100395.03
2022-09-06T19:36:45.756Z,100385.53
2022-09-06T19:39:16.724Z,100369.56
2022-09-06T19:41:47.455Z,100347.59
2022-09-06T19:44:18.435Z,100310.56
2022-09-06T19:46:47.549Z,100294.50
2022-09-06T19:49:19.552Z,100270.25
2022-09-06T19:51:49.455Z,100252.53
2022-09-06T19:54:18.248Z,100246.44
2022-09-06T19:56:47.107Z,100244.69
2022-09-06T19:59:16.361Z,100242.88
2022-09-06T20:01:46.652Z,100251.75
2022-09-06T20:04:15.963Z,100247.59
2022-09-06T20:06:44.617Z,100241.41
2022-09-06T20:09:13.453Z,100231.56
2022-09-06T20:11:42.716Z,100235.22
2022-09-06T20:14:12.284Z,100230.91
2022-09-06T20:16:42.485Z,100238.34
2022-09-06T20:19:12.669Z,100238.44
2022-09-06T20:21:41.045Z,100244.72
2022-09-06T20:24:09.646Z,100251.94
2022-09-06T20:26:37.919Z,100251.19
2022-09-06T20:29:06.978Z,100252.91
2022-09-06T20:31:37.419Z,100255.75
2022-09-06T20:34:07.133Z,100246.00
2022-09-06T20:36:35.513Z,100255.78
2022-09-06T20:39:04.263Z,100245.09
2022-09-06T20:41:33.941Z,100244.19
2022-09-06T20:44:02.669Z,100246.97
2022-09-06T20:46:34.020Z,100249.78
2022-09-06T20:49:04.887Z,100260.66
2022-09-06T20:51:36.030Z,100269.91
2022-09-06T20:54:05.604Z,100269.06
2022-09-06T20:56:37.663Z,100260.84
2022-09-06T20:59:09.653Z,100265.72
2022-09-06T21:01:42.532Z,100275.00
2022-09-06T21:04:13.101Z,100281.66
2022-09-06T21:06:41.824Z,100299.06
2022-09-06T21:09:12.525Z,100303.94
2022-09-06T21:11:41.335Z,100319.19
2022-09-06T21:14:09.812Z,100334.41
2022-09-06T21:16:38.862Z,100346.34
2022-09-06T21:19:09.519Z,100357.94
2022-09-06T21:21:38.473Z,100363.09
2022-09-06T21:24:09.101Z,100365.25
2022-09-06T21:26:38.151Z,100376.75
2022-09-06T21:29:06.385Z,100376.97
2022-09-06T21:31:36.733Z,100387.97
2022-09-06T21:34:15.634Z,100396.97
2022-09-06T21:36:45.361Z,100406.09
2022-09-06T21:39:13.980Z,100417.50
2022-09-06T21:41:43.969Z,100403.84
2022-09-06T21:44:12.874Z,100384.31
2022-09-06T21:46:41.703Z,100384.13
2022-09-06T21:49:12.895Z,100369.81
2022-09-06T21:51:41.758Z,100349.28
2022-09-06T21:54:10.094Z,100340.44
2022-09-06T21:56:40.093Z,100326.22
2022-09-06T21:59:09.045Z,100319.22
2022-09-06T22:01:38.725Z,100322.94
2022-09-06T22:04:08.829Z,100312.41
2022-09-06T22:06:37.844Z,100325.94
2022-09-06T22:09:11.170Z,100345.56
2022-09-06T22:11:41.840Z,100346.97
2022-09-06T22:14:14.142Z,100364.88
2022-09-06T22:16:42.907Z,100382.38
2022-09-06T22:19:12.162Z,100385.84
2022-09-06T22:21:40.601Z,100370.69
2022-09-06T22:24:11.188Z,100362.31
2022-09-06T22:26:41.135Z,100378.44
2022-09-06T22:29:11.187Z,100397.47
2022-09-06T22:31:39.760Z,100417.09
2022-09-06T22:34:08.745Z,100398.31
2022-09-06T22:36:37.046Z,100400.78
2022-09-06T22:39:05.744Z,100395.66
2022-09-06T22:41:34.212Z,100410.75
2022-09-06T22:44:04.079Z,100404.50
2022-09-06T22:46:32.874Z,100396.56
2022-09-06T22:49:02.305Z,100417.06
2022-09-06T22:51:30.344Z,100418.72
2022-09-06T22:53:58.630Z,100408.13
2022-09-06T22:56:26.459Z,100397.53
2022-09-06T22:58:54.762Z,100392.06
2022-09-06T23:01:23.265Z,100384.13
2022-09-06T23:03:51.586Z,100370.56
2022-09-06T23:06:19.804Z,100374.91
2022-09-06T23:08:48.424Z,100370.69
2022-09-06T23:11:18.833Z,100393.94
2022-09-06T23:13:47.429Z,100397.38
2022-09-06T23:16:19.062Z,100400.06
2022-09-06T23:18:48.336Z,100388.53
2022-09-06T23:21:20.302Z,100388.50
2022-09-06T23:23:50.370Z,100394.75
2022-09-06T23:26:32.825Z,100410.91
2022-09-06T23:29:01.645Z,100408.97
2022-09-06T23:31:33.860Z,100418.81
2022-09-06T23:34:03.068Z,100427.84
2022-09-06T23:36:32.373Z,100432.16
2022-09-06T23:39:02.533Z,100418.75
2022-09-06T23:41:31.064Z,100409.78
2022-09-06T23:43:59.765Z,100408.03
2022-09-06T23:46:28.082Z,100408.03
2022-09-06T23:48:56.484Z,100412.50
2022-09-06T23:51:25.131Z,100401.69
2022-09-06T23:53:53.628Z,100398.94
2022-09-06T23:56:22.545Z,100400.63
2022-09-06T23:58:50.836Z,100405.06
